Flight Track Log - Related Links

Times and Time Zones

All times are in EDT time to prevent confusion due to time zone crossing. See the SKW4540 flight status page for this flight to view local times or setup timezone preferences in your user account.

Time Position Orientation Groundspeed Altitude Reporting Facility
EDT Latitude Longitude Course Direction KTS MPH feet Rate Location/Type
Sat 02:06:41 PM 46.9642 -114.1747 310° West 193 222 5,800  Level Salt Lake Center
Sat 02:07:43 PM 47.0072 -114.2481 311° West 220 253 8,400 2,419 Climbing Salt Lake Center
Sat 02:08:00 PM 46.5522 -113.9517 180° South  Level Estimated
Sat 02:08:45 PM 47.0203 -114.3289 283° West 231 266 10,800  Level Salt Lake Center
Sat 02:09:00 PM 46.4694 -114.0164 208° Southwest  Level FlightAware Approximate
Sat 02:09:47 PM 46.9506 -114.3428 188° South 258 297 13,100  Level Salt Lake Center
Sat 02:10:00 PM 46.3786 -113.9805 180° South  Level Estimated
Sat 02:10:49 PM 46.8783 -114.3317 174° South 264 304 15,000  Level Salt Lake Center
Sat 02:11:50 PM 46.7953 -114.3203 175° South 281 323 16,300 1,415 Climbing Salt Lake Center
Sat 02:12:52 PM 46.7128 -114.3092 175° South 297 342 17,900 1,548 Climbing Salt Lake Center
Sat 02:13:54 PM 46.6236 -114.2975 175° South 301 346 19,500 1,355 Climbing Salt Lake Center
Sat 02:14:56 PM 46.5478 -114.2872 175° South 313 360 20,700 919 Climbing Salt Lake Center
Sat 02:15:58 PM 46.4558 -114.2747 175° South 335 386 21,400 968 Climbing Salt Lake Center
Sat 02:17:00 PM 46.3406 -114.2586 174° South 346 398 22,700 1,210 Climbing Salt Lake Center
Sat 02:18:02 PM 46.2414 -114.2464 175° South 357 411 23,900 1,161 Climbing Salt Lake Center
Sat 02:19:04 PM 46.1419 -114.2331 175° South 360 414 25,100 1,065 Climbing Salt Lake Center
Sat 02:20:06 PM 46.0403 -114.2186 174° South 365 420 26,100 927 Climbing Salt Lake Center
Sat 02:21:07 PM 45.9386 -114.2044 174° South 367 422 27,000 439 Climbing Salt Lake Center
Sat 02:22:09 PM 45.8347 -114.1914 175° South 373 429 27,000  Level Salt Lake Center
Sat 02:23:11 PM 45.7275 -114.1753 174° South 382 440 27,000  Level Salt Lake Center
Sat 02:24:13 PM 45.5983 -114.1594 175° South 388 447 27,000  Level Salt Lake Center
Sat 02:25:15 PM 45.4831 -114.1450 175° South 390 449 27,000  Level Salt Lake Center
Sat 02:26:17 PM 45.3794 -114.1319 175° South 390 449 27,000  Level Salt Lake Center
Sat 02:27:18 PM 45.2758 -114.1178 175° South 391 450 27,000  Level Salt Lake Center
Sat 02:28:20 PM 45.1550 -114.1022 175° South 391 450 27,000  Level Salt Lake Center
Sat 02:29:22 PM 45.0525 -114.0889 175° South 389 448 27,000  Level Salt Lake Center
Sat 02:30:24 PM 44.9392 -114.0250 158° South 398 458 27,000  Level Salt Lake Center
Sat 02:31:26 PM 44.8417 -113.9614 155° Southeast 403 464 27,000  Level Salt Lake Center
Sat 02:32:27 PM 44.7303 -113.8847 154° Southeast 401 461 27,000  Level Salt Lake Center
Sat 02:33:29 PM 44.6358 -113.8189 154° Southeast 399 459 27,000  Level Salt Lake Center
Sat 02:34:31 PM 44.5236 -113.7433 154° Southeast 399 459 27,000  Level Salt Lake Center
Sat 02:35:33 PM 44.4264 -113.6781 154° Southeast 402 463 27,000  Level Salt Lake Center
Sat 02:36:34 PM 44.3314 -113.6122 154° Southeast 402 463 27,000  Level Salt Lake Center
Sat 02:37:36 PM 44.2211 -113.5369 154° Southeast 399 459 27,000  Level Salt Lake Center
Sat 02:38:38 PM 44.1222 -113.4719 155° Southeast 401 461 27,000  Level Salt Lake Center
Sat 02:39:39 PM 44.0089 -113.3958 154° Southeast 405 466 27,000  Level Salt Lake Center
Sat 02:40:41 PM 43.9122 -113.3317 154° Southeast 404 465 27,000  Level Salt Lake Center
Sat 02:41:43 PM 43.7989 -113.2564 154° Southeast 404 465 27,000  Level Salt Lake Center
Sat 02:42:44 PM 43.7025 -113.1931 155° Southeast 402 463 27,000  Level Salt Lake Center
Sat 02:43:46 PM 43.5894 -113.1189 155° Southeast 402 463 27,000  Level Salt Lake Center
Sat 02:44:48 PM 43.4931 -113.0553 154° Southeast 402 463 27,000  Level Salt Lake Center
Sat 02:45:49 PM 43.3964 -112.9922 155° Southeast 402 463 27,000  Level Salt Lake Center
Sat 02:46:51 PM 43.2850 -112.9183 154° Southeast 400 460 27,000  Level Salt Lake Center
Sat 02:47:53 PM 43.1903 -112.8581 155° Southeast 395 455 27,000  Level Salt Lake Center
Sat 02:48:54 PM 43.0786 -112.7861 155° Southeast 397 457 27,000  Level Salt Lake Center
Sat 02:49:56 PM 42.9833 -112.7258 155° Southeast 395 455 27,000  Level Salt Lake Center
Sat 02:50:58 PM 42.8719 -112.6553 155° Southeast 396 456 27,000  Level Salt Lake Center
Sat 02:51:59 PM 42.7711 -112.6217 166° South 391 450 27,000  Level Salt Lake Center
Sat 02:53:01 PM 42.6589 -112.5897 168° South 387 445 27,000  Level Salt Lake Center
Sat 02:54:02 PM 42.5531 -112.5578 167° South 389 448 27,000  Level Salt Lake Center
Sat 02:55:04 PM 42.4500 -112.5258 167° South 383 441 27,000  Level Salt Lake Center
Sat 02:56:06 PM 42.3467 -112.4964 168° South 380 437 27,000  Level Salt Lake Center
Sat 02:57:07 PM 42.2422 -112.4644 167° South 385 443 27,000  Level Salt Lake Center
Sat 02:58:09 PM 42.1369 -112.4539 176° South 384 442 27,000 -435 Level Salt Lake Center
Sat 02:59:11 PM 42.0117 -112.4611 182° South 377 434 26,100 -1,366 Descending Salt Lake Center
Sat 03:00:12 PM 41.9108 -112.4669 182° South 367 422 24,200 -1,854 Descending Salt Lake Center
Sat 03:01:14 PM 41.8131 -112.4736 183° South 358 412 22,300 -1,854 Descending Salt Lake Center
Sat 03:02:15 PM 41.7217 -112.4789 182° South 339 390 20,400 -1,979 Descending Salt Lake Center
Sat 03:02:51 PM 41.6639 -112.4758 178° South 329 379 19,100 -2,051 Descending Salt Lake Center
Sat 03:03:34 PM 41.6022 -112.4794 183° South 324 373 17,700 -1,432 Descending Salt Lake Center
Sat 03:04:19 PM 41.5422 -112.4858 185° South 326 375 17,000 -736 Descending Salt Lake Center
Sat 03:05:20 PM 41.4511 -112.4206 152° Southeast 374 430 16,400 -1,171 Descending Salt Lake Center
Sat 03:06:22 PM 41.3456 -112.3475 153° Southeast 355 409 14,600 -1,489 Descending Salt Lake Center
Sat 03:07:37 PM 41.2472 -112.2761 151° Southeast 343 395 13,000 -1,147 Descending Salt Lake Center
Sat 03:08:38 PM 41.1597 -112.2117 151° Southeast 337 388 12,000 -927 Descending Salt Lake Center
Sat 03:09:27 PM 41.1000 -112.1664 150° Southeast 335 386 11,300 -545 Descending Salt Lake Center
Sat 03:10:28 PM 41.0167 -112.1342 164° South 302 348 11,000 -146 Descending Salt Lake Center
Sat 03:11:30 PM 40.9456 -112.1197 171° South 259 298 11,000  Level Salt Lake Center
Sat 03:12:28 PM 40.8619 -112.1081 174° South 269 310 11,000 -49 Level Salt Lake Center
Sat 03:13:33 PM 40.7819 -112.0953 173° South 277 319 10,900 -520 Descending Salt Lake Center
Sat 03:14:35 PM 40.7103 -112.0872 175° South 258 297 9,900 -1,210 Descending Salt Lake Center
Sat 03:15:37 PM 40.6575 -112.0558 156° South 226 260 8,400 -1,548 Descending Salt Lake Center
Sat 03:16:39 PM 40.6808 -111.9950 63° Northeast 205 236 6,700 -1,463 Descending Salt Lake Center
Sat 03:17:40 PM 40.7264 -111.9894 North 169 194 5,400 -1,122 Descending Salt Lake Center
Sat 03:18:42 PM 40.7683 -111.9947 355° North 153 176 4,400 -968 Descending Salt Lake Center

Login

Don't have an account? Register now (free) for customized features, flight alerts, and more!